sensor_id;sensor_type;location;lat;lon;timestamp;pressure;altitude;pressure_sealevel;temperature;humidity
77975;BME280;67164;51.202;0.278;2023-05-10T00:02:14;100731.78;;;22.46;45.18
77975;BME280;67164;51.202;0.278;2023-05-10T00:04:41;100733.87;;;22.41;45.16
77975;BME280;67164;51.202;0.278;2023-05-10T00:07:06;100732.48;;;22.42;45.04
77975;BME280;67164;51.202;0.278;2023-05-10T00:09:32;100732.35;;;22.62;45.14
77975;BME280;67164;51.202;0.278;2023-05-10T00:11:57;100733.32;;;22.55;45.04
77975;BME280;67164;51.202;0.278;2023-05-10T00:14:23;100733.64;;;22.51;45.12
77975;BME280;67164;51.202;0.278;2023-05-10T00:16:49;100731.35;;;22.55;44.99
77975;BME280;67164;51.202;0.278;2023-05-10T00:19:14;100730.68;;;22.42;45.08
77975;BME280;67164;51.202;0.278;2023-05-10T00:21:40;100731.22;;;22.40;45.13
77975;BME280;67164;51.202;0.278;2023-05-10T00:24:06;100730.68;;;22.49;44.79
77975;BME280;67164;51.202;0.278;2023-05-10T00:26:32;100731.44;;;22.15;44.91
77975;BME280;67164;51.202;0.278;2023-05-10T00:28:57;100731.73;;;22.40;44.89
77975;BME280;67164;51.202;0.278;2023-05-10T00:31:23;100734.80;;;22.40;44.83
77975;BME280;67164;51.202;0.278;2023-05-10T00:33:49;100734.83;;;22.42;44.80
77975;BME280;67164;51.202;0.278;2023-05-10T00:36:15;100733.03;;;22.28;45.11
77975;BME280;67164;51.202;0.278;2023-05-10T00:38:41;100735.02;;;22.20;45.00
77975;BME280;67164;51.202;0.278;2023-05-10T00:41:06;100733.34;;;22.52;44.83
77975;BME280;67164;51.202;0.278;2023-05-10T00:43:33;100731.62;;;22.29;44.73
77975;BME280;67164;51.202;0.278;2023-05-10T00:45:58;100731.62;;;22.08;44.68
77975;BME280;67164;51.202;0.278;2023-05-10T00:48:25;100734.54;;;22.30;44.57
77975;BME280;67164;51.202;0.278;2023-05-10T00:50:50;100734.65;;;22.31;44.73
77975;BME280;67164;51.202;0.278;2023-05-10T00:53:15;100735.31;;;22.62;44.57
77975;BME280;67164;51.202;0.278;2023-05-10T00:55:41;100736.47;;;22.36;44.53
77975;BME280;67164;51.202;0.278;2023-05-10T00:58:07;100740.38;;;22.63;44.44
77975;BME280;67164;51.202;0.278;2023-05-10T01:00:34;100735.33;;;22.52;44.57
77975;BME280;67164;51.202;0.278;2023-05-10T01:02:58;100734.06;;;22.62;44.31
77975;BME280;67164;51.202;0.278;2023-05-10T01:05:25;100735.31;;;22.35;44.33
77975;BME280;67164;51.202;0.278;2023-05-10T01:07:50;100737.97;;;22.48;44.09
77975;BME280;67164;51.202;0.278;2023-05-10T01:10:16;100736.71;;;22.63;44.22
77975;BME280;67164;51.202;0.278;2023-05-10T01:12:44;100739.04;;;22.18;44.17
77975;BME280;67164;51.202;0.278;2023-05-10T01:15:08;100744.07;;;22.45;44.13
77975;BME280;67164;51.202;0.278;2023-05-10T01:17:33;100739.98;;;22.37;44.11
77975;BME280;67164;51.202;0.278;2023-05-10T01:19:59;100741.95;;;22.16;44.03
77975;BME280;67164;51.202;0.278;2023-05-10T01:22:40;100744.23;;;22.36;44.08
77975;BME280;67164;51.202;0.278;2023-05-10T01:27:25;100746.61;;;22.41;44.02
77975;BME280;67164;51.202;0.278;2023-05-10T01:32:16;100749.18;;;22.46;43.87
77975;BME280;67164;51.202;0.278;2023-05-10T01:34:35;100749.07;;;22.15;43.94
77975;BME280;67164;51.202;0.278;2023-05-10T01:37:04;100745.45;;;22.53;44.06
77975;BME280;67164;51.202;0.278;2023-05-10T01:39:32;100744.31;;;22.29;44.01
77975;BME280;67164;51.202;0.278;2023-05-10T01:41:55;100744.62;;;22.58;43.92
77975;BME280;67164;51.202;0.278;2023-05-10T01:44:20;100744.84;;;22.48;44.09
77975;BME280;67164;51.202;0.278;2023-05-10T01:46:43;100750.03;;;22.68;43.78
77975;BME280;67164;51.202;0.278;2023-05-10T01:49:14;100750.96;;;22.55;43.96
77975;BME280;67164;51.202;0.278;2023-05-10T01:51:40;100755.17;;;22.26;44.16
77975;BME280;67164;51.202;0.278;2023-05-10T01:54:02;100755.10;;;22.25;44.04
77975;BME280;67164;51.202;0.278;2023-05-10T01:56:29;100757.15;;;22.55;43.86
77975;BME280;67164;51.202;0.278;2023-05-10T01:58:52;100762.55;;;22.14;44.08
77975;BME280;67164;51.202;0.278;2023-05-10T02:01:20;100762.94;;;22.15;44.03
77975;BME280;67164;51.202;0.278;2023-05-10T02:03:43;100766.42;;;22.24;43.90
77975;BME280;67164;51.202;0.278;2023-05-10T02:06:11;100769.51;;;22.20;43.95
77975;BME280;67164;51.202;0.278;2023-05-10T02:08:36;100771.29;;;21.97;43.93
77975;BME280;67164;51.202;0.278;2023-05-10T02:11:01;100772.33;;;22.45;43.90
77975;BME280;67164;51.202;0.278;2023-05-10T02:13:27;100778.18;;;22.45;43.86
77975;BME280;67164;51.202;0.278;2023-05-10T02:15:53;100778.07;;;22.35;44.02
77975;BME280;67164;51.202;0.278;2023-05-10T02:18:18;100778.45;;;22.06;44.16
77975;BME280;67164;51.202;0.278;2023-05-10T02:20:46;100778.25;;;22.28;44.14
77975;BME280;67164;51.202;0.278;2023-05-10T02:23:10;100776.07;;;22.15;43.95
77975;BME280;67164;51.202;0.278;2023-05-10T02:25:36;100779.27;;;22.12;43.99
77975;BME280;67164;51.202;0.278;2023-05-10T02:28:03;100782.70;;;22.39;43.98
77975;BME280;67164;51.202;0.278;2023-05-10T02:30:28;100782.55;;;22.06;44.01
77975;BME280;67164;51.202;0.278;2023-05-10T02:32:53;100780.04;;;22.32;44.00
77975;BME280;67164;51.202;0.278;2023-05-10T02:35:19;100779.97;;;22.05;44.06
77975;BME280;67164;51.202;0.278;2023-05-10T02:37:45;100780.19;;;22.29;44.05
77975;BME280;67164;51.202;0.278;2023-05-10T02:40:10;100780.51;;;22.11;43.90
77975;BME280;67164;51.202;0.278;2023-05-10T02:42:37;100780.93;;;22.14;43.83
77975;BME280;67164;51.202;0.278;2023-05-10T02:45:07;100781.70;;;22.05;43.93
77975;BME280;67164;51.202;0.278;2023-05-10T02:47:28;100781.88;;;22.28;44.00
77975;BME280;67164;51.202;0.278;2023-05-10T02:49:53;100782.52;;;22.06;43.94
77975;BME280;67164;51.202;0.278;2023-05-10T02:52:23;100786.00;;;22.02;43.98
77975;BME280;67164;51.202;0.278;2023-05-10T02:54:49;100786.83;;;21.96;44.11
77975;BME280;67164;51.202;0.278;2023-05-10T02:57:14;100788.23;;;22.36;43.85
77975;BME280;67164;51.202;0.278;2023-05-10T02:59:36;100788.15;;;22.26;43.95
77975;BME280;67164;51.202;0.278;2023-05-10T03:02:03;100790.79;;;22.02;43.90
77975;BME280;67164;51.202;0.278;2023-05-10T03:04:28;100790.32;;;22.28;43.81
77975;BME280;67164;51.202;0.278;2023-05-10T03:06:54;100788.33;;;22.27;43.86
77975;BME280;67164;51.202;0.278;2023-05-10T03:09:19;100789.24;;;22.05;43.77
77975;BME280;67164;51.202;0.278;2023-05-10T03:11:53;100793.71;;;21.96;43.90
77975;BME280;67164;51.202;0.278;2023-05-10T03:14:21;100799.81;;;21.74;43.90
77975;BME280;67164;51.202;0.278;2023-05-10T03:16:42;100803.07;;;21.96;43.94
77975;BME280;67164;51.202;0.278;2023-05-10T03:19:09;100800.71;;;22.16;43.97
77975;BME280;67164;51.202;0.278;2023-05-10T03:21:30;100795.70;;;22.11;43.98
77975;BME280;67164;51.202;0.278;2023-05-10T03:23:59;100797.06;;;22.22;43.85
77975;BME280;67164;51.202;0.278;2023-05-10T03:26:24;100798.19;;;21.85;43.99
77975;BME280;67164;51.202;0.278;2023-05-10T03:28:47;100802.60;;;21.98;43.83
77975;BME280;67164;51.202;0.278;2023-05-10T03:31:12;100799.01;;;21.97;43.73
77975;BME280;67164;51.202;0.278;2023-05-10T03:33:46;100801.53;;;21.91;43.77
77975;BME280;67164;51.202;0.278;2023-05-10T03:36:04;100801.55;;;22.00;43.67
77975;BME280;67164;51.202;0.278;2023-05-10T03:38:29;100804.22;;;21.80;43.63
77975;BME280;67164;51.202;0.278;2023-05-10T03:40:55;100802.25;;;22.15;43.71
77975;BME280;67164;51.202;0.278;2023-05-10T03:43:20;100805.24;;;22.16;43.76
77975;BME280;67164;51.202;0.278;2023-05-10T03:45:46;100806.09;;;22.14;43.77
77975;BME280;67164;51.202;0.278;2023-05-10T03:48:12;100808.64;;;21.89;43.66
77975;BME280;67164;51.202;0.278;2023-05-10T03:50:38;100811.15;;;22.11;43.74
77975;BME280;67164;51.202;0.278;2023-05-10T03:53:04;100813.79;;;22.17;43.69
77975;BME280;67164;51.202;0.278;2023-05-10T03:55:29;100814.32;;;22.23;43.65
77975;BME280;67164;51.202;0.278;2023-05-10T03:57:55;100821.36;;;22.04;43.88
77975;BME280;67164;51.202;0.278;2023-05-10T04:00:21;100817.40;;;22.11;43.82
77975;BME280;67164;51.202;0.278;2023-05-10T04:02:47;100819.74;;;21.81;43.99
77975;BME280;67164;51.202;0.278;2023-05-10T04:05:13;100822.24;;;22.01;43.95
77975;BME280;67164;51.202;0.278;2023-05-10T04:07:39;100821.90;;;22.00;44.00
77975;BME280;67164;51.202;0.278;2023-05-10T04:10:05;100820.90;;;21.95;43.97
77975;BME280;67164;51.202;0.278;2023-05-10T04:12:30;100817.87;;;22.14;43.81
77975;BME280;67164;51.202;0.278;2023-05-10T04:14:56;100818.50;;;22.08;43.78
77975;BME280;67164;51.202;0.278;2023-05-10T04:17:21;100825.65;;;21.87;43.80
77975;BME280;67164;51.202;0.278;2023-05-10T04:19:47;100825.04;;;22.08;43.84
77975;BME280;67164;51.202;0.278;2023-05-10T04:22:13;100826.93;;;22.00;43.94
77975;BME280;67164;51.202;0.278;2023-05-10T04:24:39;100831.44;;;21.96;43.99
77975;BME280;67164;51.202;0.278;2023-05-10T04:27:05;100829.42;;;22.02;43.87
77975;BME280;67164;51.202;0.278;2023-05-10T04:29:30;100830.63;;;22.07;43.82
77975;BME280;67164;51.202;0.278;2023-05-10T04:31:56;100829.44;;;22.05;43.87
77975;BME280;67164;51.202;0.278;2023-05-10T04:34:22;100832.01;;;21.98;43.97
77975;BME280;67164;51.202;0.278;2023-05-10T04:36:48;100832.31;;;22.15;43.65
77975;BME280;67164;51.202;0.278;2023-05-10T04:39:13;100830.11;;;21.77;43.86
77975;BME280;67164;51.202;0.278;2023-05-10T04:41:39;100833.13;;;21.97;43.90
77975;BME280;67164;51.202;0.278;2023-05-10T04:44:05;100832.90;;;21.73;43.90
77975;BME280;67164;51.202;0.278;2023-05-10T04:46:31;100839.98;;;22.06;43.76
77975;BME280;67164;51.202;0.278;2023-05-10T04:48:57;100844.71;;;21.92;43.99
77975;BME280;67164;51.202;0.278;2023-05-10T04:51:23;100845.28;;;21.94;43.97
77975;BME280;67164;51.202;0.278;2023-05-10T04:53:48;100851.55;;;21.98;43.84
77975;BME280;67164;51.202;0.278;2023-05-10T04:56:14;100851.66;;;21.98;43.87
77975;BME280;67164;51.202;0.278;2023-05-10T04:58:42;100853.73;;;21.76;43.81
77975;BME280;67164;51.202;0.278;2023-05-10T05:01:06;100856.43;;;21.91;43.66
77975;BME280;67164;51.202;0.278;2023-05-10T05:03:32;100859.82;;;22.35;43.25
77975;BME280;67164;51.202;0.278;2023-05-10T05:05:57;100861.98;;;22.15;43.22
77975;BME280;67164;51.202;0.278;2023-05-10T05:08:23;100866.52;;;22.10;43.30
77975;BME280;67164;51.202;0.278;2023-05-10T05:10:49;100870.97;;;22.12;43.56
77975;BME280;67164;51.202;0.278;2023-05-10T05:13:15;100872.40;;;22.18;43.48
77975;BME280;67164;51.202;0.278;2023-05-10T05:15:40;100875.28;;;22.13;43.54
77975;BME280;67164;51.202;0.278;2023-05-10T05:18:06;100882.45;;;21.95;43.94
77975;BME280;67164;51.202;0.278;2023-05-10T05:20:33;100884.66;;;21.67;44.16
77975;BME280;67164;51.202;0.278;2023-05-10T05:22:58;100885.95;;;21.90;44.20
77975;BME280;67164;51.202;0.278;2023-05-10T05:25:24;100888.45;;;21.90;44.43
77975;BME280;67164;51.202;0.278;2023-05-10T05:27:49;100890.36;;;21.88;44.43
77975;BME280;67164;51.202;0.278;2023-05-10T05:30:16;100897.35;;;21.95;44.61
77975;BME280;67164;51.202;0.278;2023-05-10T05:32:41;100898.08;;;21.74;44.57
77975;BME280;67164;51.202;0.278;2023-05-10T05:35:07;100902.13;;;22.00;44.81
77975;BME280;67164;51.202;0.278;2023-05-10T05:37:33;100905.01;;;21.99;44.62
77975;BME280;67164;51.202;0.278;2023-05-10T05:39:58;100905.76;;;21.99;44.84
77975;BME280;67164;51.202;0.278;2023-05-10T05:42:24;100910.46;;;21.95;44.55
77975;BME280;67164;51.202;0.278;2023-05-10T05:44:50;100911.39;;;21.85;44.95
77975;BME280;67164;51.202;0.278;2023-05-10T05:47:16;100911.52;;;22.06;44.58
77975;BME280;67164;51.202;0.278;2023-05-10T05:49:42;100913.38;;;21.89;44.19
77975;BME280;67164;51.202;0.278;2023-05-10T05:52:07;100915.95;;;22.19;44.61
77975;BME280;67164;51.202;0.278;2023-05-10T05:54:33;100919.56;;;21.93;44.51
77975;BME280;67164;51.202;0.278;2023-05-10T05:57:00;100922.58;;;22.00;44.57
77975;BME280;67164;51.202;0.278;2023-05-10T05:59:25;100926.84;;;22.14;44.60
77975;BME280;67164;51.202;0.278;2023-05-10T06:01:51;100928.03;;;21.89;44.81
77975;BME280;67164;51.202;0.278;2023-05-10T06:04:17;100928.62;;;22.07;44.78
77975;BME280;67164;51.202;0.278;2023-05-10T06:06:42;100928.73;;;22.08;44.68
77975;BME280;67164;51.202;0.278;2023-05-10T06:09:07;100928.40;;;22.04;44.76
77975;BME280;67164;51.202;0.278;2023-05-10T06:11:33;100925.89;;;22.07;44.82
77975;BME280;67164;51.202;0.278;2023-05-10T06:14:04;100929.75;;;22.09;44.65
77975;BME280;67164;51.202;0.278;2023-05-10T06:16:25;100932.25;;;22.05;44.76
77975;BME280;67164;51.202;0.278;2023-05-10T06:18:51;100933.56;;;22.06;44.83
77975;BME280;67164;51.202;0.278;2023-05-10T06:21:17;100930.58;;;21.88;44.58
77975;BME280;67164;51.202;0.278;2023-05-10T06:23:42;100935.09;;;21.99;44.51
77975;BME280;67164;51.202;0.278;2023-05-10T06:26:09;100934.23;;;22.16;44.30
77975;BME280;67164;51.202;0.278;2023-05-10T06:28:34;100934.84;;;22.07;44.37
77975;BME280;67164;51.202;0.278;2023-05-10T06:30:59;100938.91;;;21.99;44.14
77975;BME280;67164;51.202;0.278;2023-05-10T06:33:25;100939.17;;;22.28;44.02
77975;BME280;67164;51.202;0.278;2023-05-10T06:35:51;100936.53;;;22.19;44.14
77975;BME280;67164;51.202;0.278;2023-05-10T06:38:17;100938.58;;;22.00;44.14
77975;BME280;67164;51.202;0.278;2023-05-10T06:40:42;100942.32;;;22.05;44.11
77975;BME280;67164;51.202;0.278;2023-05-10T06:43:08;100946.71;;;22.05;44.35
77975;BME280;67164;51.202;0.278;2023-05-10T06:45:34;100947.09;;;21.47;44.93
77975;BME280;67164;51.202;0.278;2023-05-10T06:48:00;100945.81;;;21.20;45.41
77975;BME280;67164;51.202;0.278;2023-05-10T06:50:26;100948.50;;;21.46;45.43
77975;BME280;67164;51.202;0.278;2023-05-10T06:52:51;100958.65;;;20.76;46.23
77975;BME280;67164;51.202;0.278;2023-05-10T06:55:17;100961.35;;;20.75;46.35
77975;BME280;67164;51.202;0.278;2023-05-10T06:57:42;100961.42;;;21.04;46.30
77975;BME280;67164;51.202;0.278;2023-05-10T07:00:09;100956.87;;;21.01;45.72
77975;BME280;67164;51.202;0.278;2023-05-10T07:02:34;100955.56;;;21.22;45.74
77975;BME280;67164;51.202;0.278;2023-05-10T07:05:00;100957.52;;;20.91;46.61
77975;BME280;67164;51.202;0.278;2023-05-10T07:07:25;100956.12;;;20.96;46.29
77975;BME280;67164;51.202;0.278;2023-05-10T07:09:51;100957.98;;;21.34;46.05
77975;BME280;67164;51.202;0.278;2023-05-10T07:12:17;100959.74;;;21.34;46.02
77975;BME280;67164;51.202;0.278;2023-05-10T07:14:43;100960.73;;;21.19;45.89
77975;BME280;67164;51.202;0.278;2023-05-10T07:17:09;100958.52;;;21.56;45.75
77975;BME280;67164;51.202;0.278;2023-05-10T07:19:34;100962.22;;;21.37;45.69
77975;BME280;67164;51.202;0.278;2023-05-10T07:22:00;100962.96;;;21.48;45.40
77975;BME280;67164;51.202;0.278;2023-05-10T07:24:26;100965.97;;;21.79;44.98
77975;BME280;67164;51.202;0.278;2023-05-10T07:26:52;100968.28;;;21.93;44.70
77975;BME280;67164;51.202;0.278;2023-05-10T07:29:19;100972.92;;;21.88;44.81
77975;BME280;67164;51.202;0.278;2023-05-10T07:31:43;100977.77;;;22.03;44.57
77975;BME280;67164;51.202;0.278;2023-05-10T07:34:09;100976.70;;;22.29;44.52
77975;BME280;67164;51.202;0.278;2023-05-10T07:36:35;100978.98;;;22.18;44.29
77975;BME280;67164;51.202;0.278;2023-05-10T07:39:01;100974.86;;;22.08;44.39
77975;BME280;67164;51.202;0.278;2023-05-10T07:41:26;100973.01;;;22.12;44.31
77975;BME280;67164;51.202;0.278;2023-05-10T07:43:52;100974.83;;;22.03;44.47
77975;BME280;67164;51.202;0.278;2023-05-10T07:46:19;100976.17;;;21.88;44.83
77975;BME280;67164;51.202;0.278;2023-05-10T07:48:44;100977.58;;;21.19;46.32
77975;BME280;67164;51.202;0.278;2023-05-10T07:51:09;100981.05;;;20.76;47.10
77975;BME280;67164;51.202;0.278;2023-05-10T07:53:35;100977.58;;;20.42;47.45
77975;BME280;67164;51.202;0.278;2023-05-10T07:58:26;100983.20;;;21.06;46.98
77975;BME280;67164;51.202;0.278;2023-05-10T08:00:52;100978.40;;;20.47;47.61
77975;BME280;67164;51.202;0.278;2023-05-10T08:03:18;100980.29;;;21.12;47.08
77975;BME280;67164;51.202;0.278;2023-05-10T08:05:43;100980.59;;;20.80;47.09
77975;BME280;67164;51.202;0.278;2023-05-10T08:08:09;100976.61;;;21.37;46.20
77975;BME280;67164;51.202;0.278;2023-05-10T08:10:35;100978.54;;;20.73;47.20
77975;BME280;67164;51.202;0.278;2023-05-10T08:13:01;100981.24;;;20.88;46.98
77975;BME280;67164;51.202;0.278;2023-05-10T08:15:26;100980.12;;;21.21;46.86
77975;BME280;67164;51.202;0.278;2023-05-10T08:17:52;100982.81;;;21.06;46.70
77975;BME280;67164;51.202;0.278;2023-05-10T08:20:18;100979.70;;;21.42;46.58
77975;BME280;67164;51.202;0.278;2023-05-10T08:22:44;100976.71;;;21.50;46.09
77975;BME280;67164;51.202;0.278;2023-05-10T08:25:10;100978.20;;;21.61;46.20
77975;BME280;67164;51.202;0.278;2023-05-10T08:27:35;100981.10;;;21.44;46.18
77975;BME280;67164;51.202;0.278;2023-05-10T08:30:01;100983.96;;;21.54;46.06
77975;BME280;67164;51.202;0.278;2023-05-10T08:32:27;100988.50;;;21.97;45.99
77975;BME280;67164;51.202;0.278;2023-05-10T08:34:53;100992.75;;;21.87;45.75
77975;BME280;67164;51.202;0.278;2023-05-10T08:37:19;100994.90;;;21.84;45.86
77975;BME280;67164;51.202;0.278;2023-05-10T08:39:44;100995.58;;;21.52;46.06
77975;BME280;67164;51.202;0.278;2023-05-10T08:42:11;100996.24;;;21.72;46.25
77975;BME280;67164;51.202;0.278;2023-05-10T08:44:36;101000.04;;;21.33;46.85
77975;BME280;67164;51.202;0.278;2023-05-10T08:47:05;100998.68;;;21.48;46.55
77975;BME280;67164;51.202;0.278;2023-05-10T08:49:29;101001.61;;;22.10;45.82
77975;BME280;67164;51.202;0.278;2023-05-10T08:51:55;101000.53;;;22.15;45.65
77975;BME280;67164;51.202;0.278;2023-05-10T08:54:19;101000.20;;;22.18;45.57
77975;BME280;67164;51.202;0.278;2023-05-10T08:56:45;101001.06;;;22.22;45.49
77975;BME280;67164;51.202;0.278;2023-05-10T08:59:11;101004.23;;;22.04;45.39
77975;BME280;67164;51.202;0.278;2023-05-10T09:01:37;101003.45;;;22.46;44.90
77975;BME280;67164;51.202;0.278;2023-05-10T09:04:02;101001.29;;;22.75;44.77
77975;BME280;67164;51.202;0.278;2023-05-10T09:06:28;101004.82;;;22.50;44.79
77975;BME280;67164;51.202;0.278;2023-05-10T09:08:54;101003.14;;;22.53;44.75
77975;BME280;67164;51.202;0.278;2023-05-10T09:11:20;100999.84;;;22.60;44.65
77975;BME280;67164;51.202;0.278;2023-05-10T09:13:46;100998.57;;;22.60;44.62
77975;BME280;67164;51.202;0.278;2023-05-10T09:16:11;100998.19;;;22.81;44.62
77975;BME280;67164;51.202;0.278;2023-05-10T09:18:37;100998.00;;;22.48;44.63
77975;BME280;67164;51.202;0.278;2023-05-10T09:21:03;101000.29;;;22.42;44.65
77975;BME280;67164;51.202;0.278;2023-05-10T09:23:28;101001.37;;;22.74;44.71
77975;BME280;67164;51.202;0.278;2023-05-10T09:26:02;101002.52;;;22.76;44.80
77975;BME280;67164;51.202;0.278;2023-05-10T09:28:19;101002.72;;;22.79;44.82
77975;BME280;67164;51.202;0.278;2023-05-10T09:30:53;101002.41;;;22.78;44.83
77975;BME280;67164;51.202;0.278;2023-05-10T09:33:11;101004.91;;;22.79;44.78
77975;BME280;67164;51.202;0.278;2023-05-10T09:35:36;101005.11;;;22.50;44.87
77975;BME280;67164;51.202;0.278;2023-05-10T09:38:04;101005.09;;;22.62;45.00
77975;BME280;67164;51.202;0.278;2023-05-10T09:40:29;101006.37;;;22.42;44.78
77975;BME280;67164;51.202;0.278;2023-05-10T09:42:55;101008.83;;;22.64;44.86
77975;BME280;67164;51.202;0.278;2023-05-10T09:45:20;101011.64;;;22.31;45.05
77975;BME280;67164;51.202;0.278;2023-05-10T09:47:45;101016.31;;;22.55;44.67
77975;BME280;67164;51.202;0.278;2023-05-10T09:50:11;101021.01;;;22.58;44.69
77975;BME280;67164;51.202;0.278;2023-05-10T09:52:47;101017.09;;;22.67;44.93
77975;BME280;67164;51.202;0.278;2023-05-10T09:55:06;101014.50;;;22.56;44.76
77975;BME280;67164;51.202;0.278;2023-05-10T09:57:31;101013.50;;;22.49;44.90
77975;BME280;67164;51.202;0.278;2023-05-10T09:59:54;101012.36;;;22.74;44.92
77975;BME280;67164;51.202;0.278;2023-05-10T10:02:20;101015.97;;;22.34;45.05
77975;BME280;67164;51.202;0.278;2023-05-10T10:04:49;101015.50;;;22.44;45.10
77975;BME280;67164;51.202;0.278;2023-05-10T10:07:12;101018.20;;;21.54;46.30
77975;BME280;67164;51.202;0.278;2023-05-10T10:09:37;101016.30;;;21.74;46.58
77975;BME280;67164;51.202;0.278;2023-05-10T10:12:03;101016.37;;;22.39;45.68
77975;BME280;67164;51.202;0.278;2023-05-10T10:14:29;101018.18;;;21.85;46.18
77975;BME280;67164;51.202;0.278;2023-05-10T10:16:55;101021.12;;;21.42;47.37
77975;BME280;67164;51.202;0.278;2023-05-10T10:19:21;101020.61;;;21.72;46.87
77975;BME280;67164;51.202;0.278;2023-05-10T10:21:46;101017.41;;;21.71;47.01
77975;BME280;67164;51.202;0.278;2023-05-10T10:24:11;101016.67;;;21.77;46.58
77975;BME280;67164;51.202;0.278;2023-05-10T10:26:37;101020.45;;;21.95;46.43
77975;BME280;67164;51.202;0.278;2023-05-10T10:29:11;101021.41;;;21.67;47.09
77975;BME280;67164;51.202;0.278;2023-05-10T10:31:34;101021.54;;;21.53;47.25
77975;BME280;67164;51.202;0.278;2023-05-10T10:34:00;101017.39;;;21.40;46.96
77975;BME280;67164;51.202;0.278;2023-05-10T10:36:20;101017.75;;;21.37;46.42
77975;BME280;67164;51.202;0.278;2023-05-10T10:38:56;101014.92;;;21.37;46.68
77975;BME280;67164;51.202;0.278;2023-05-10T10:43:37;101014.21;;;21.70;45.97
77975;BME280;67164;51.202;0.278;2023-05-10T10:46:12;101015.56;;;21.47;46.67
77975;BME280;67164;51.202;0.278;2023-05-10T10:48:28;101016.60;;;21.65;46.23
77975;BME280;67164;51.202;0.278;2023-05-10T10:50:57;101014.29;;;21.74;46.19
77975;BME280;67164;51.202;0.278;2023-05-10T10:53:19;101012.94;;;21.69;45.82
77975;BME280;67164;51.202;0.278;2023-05-10T10:55:47;101012.37;;;21.60;46.28
77975;BME280;67164;51.202;0.278;2023-05-10T10:58:12;101013.59;;;22.05;45.23
77975;BME280;67164;51.202;0.278;2023-05-10T11:00:37;101010.82;;;22.36;44.68
77975;BME280;67164;51.202;0.278;2023-05-10T11:03:04;101009.28;;;22.54;44.61
77975;BME280;67164;51.202;0.278;2023-05-10T11:05:37;101013.47;;;21.85;44.68
77975;BME280;67164;51.202;0.278;2023-05-10T11:07:53;101012.69;;;21.36;45.43
77975;BME280;67164;51.202;0.278;2023-05-10T11:10:19;101008.30;;;21.43;44.69
77975;BME280;67164;51.202;0.278;2023-05-10T11:12:52;101017.73;;;20.82;41.21
77975;BME280;67164;51.202;0.278;2023-05-10T11:15:15;101016.47;;;19.27;42.21
77975;BME280;67164;51.202;0.278;2023-05-10T11:17:35;101017.67;;;16.97;45.58
77975;BME280;67164;51.202;0.278;2023-05-10T11:20:08;101021.13;;;19.95;43.71
77975;BME280;67164;51.202;0.278;2023-05-10T11:22:27;101018.99;;;20.79;43.35
77975;BME280;67164;51.202;0.278;2023-05-10T11:24:58;101021.27;;;21.72;42.73
77975;BME280;67164;51.202;0.278;2023-05-10T11:27:18;101019.65;;;21.63;43.29
77975;BME280;67164;51.202;0.278;2023-05-10T11:29:44;101019.81;;;21.60;43.39
77975;BME280;67164;51.202;0.278;2023-05-10T11:32:10;101016.84;;;21.94;42.90
77975;BME280;67164;51.202;0.278;2023-05-10T11:34:36;101017.54;;;21.64;43.88
77975;BME280;67164;51.202;0.278;2023-05-10T11:37:02;101013.36;;;22.00;43.59
77975;BME280;67164;51.202;0.278;2023-05-10T11:39:28;101010.41;;;22.34;43.39
77975;BME280;67164;51.202;0.278;2023-05-10T11:41:54;101009.52;;;22.05;43.52
77975;BME280;67164;51.202;0.278;2023-05-10T11:44:19;101012.26;;;21.11;44.29
77975;BME280;67164;51.202;0.278;2023-05-10T11:46:45;101009.43;;;21.44;43.67
77975;BME280;67164;51.202;0.278;2023-05-10T11:49:11;101011.40;;;21.35;43.80
77975;BME280;67164;51.202;0.278;2023-05-10T11:51:37;101013.42;;;20.83;43.99
77975;BME280;67164;51.202;0.278;2023-05-10T11:54:06;101013.19;;;20.74;44.36
77975;BME280;67164;51.202;0.278;2023-05-10T11:56:28;101014.25;;;20.55;44.62
77975;BME280;67164;51.202;0.278;2023-05-10T11:58:55;101006.55;;;20.71;44.44
77975;BME280;67164;51.202;0.278;2023-05-10T12:01:21;101003.48;;;20.26;43.94
77975;BME280;67164;51.202;0.278;2023-05-10T12:03:52;101006.22;;;20.98;44.28
77975;BME280;67164;51.202;0.278;2023-05-10T12:06:11;101006.80;;;20.80;43.76
77975;BME280;67164;51.202;0.278;2023-05-10T12:08:44;101009.73;;;21.53;43.60
77975;BME280;67164;51.202;0.278;2023-05-10T12:11:07;101008.42;;;21.83;43.64
77975;BME280;67164;51.202;0.278;2023-05-10T12:13:29;101007.63;;;22.15;43.61
77975;BME280;67164;51.202;0.278;2023-05-10T12:15:57;101004.73;;;21.83;44.37
77975;BME280;67164;51.202;0.278;2023-05-10T12:18:23;101003.22;;;21.61;44.58
77975;BME280;67164;51.202;0.278;2023-05-10T12:20:45;100999.42;;;21.49;44.28
77975;BME280;67164;51.202;0.278;2023-05-10T12:23:13;100998.51;;;20.68;43.70
77975;BME280;67164;51.202;0.278;2023-05-10T12:25:37;100994.55;;;20.88;43.97
77975;BME280;67164;51.202;0.278;2023-05-10T12:28:05;100997.15;;;20.53;43.60
77975;BME280;67164;51.202;0.278;2023-05-10T12:30:30;100993.14;;;20.94;43.60
77975;BME280;67164;51.202;0.278;2023-05-10T12:33:00;100987.94;;;22.08;43.24
77975;BME280;67164;51.202;0.278;2023-05-10T12:35:20;100991.46;;;21.43;43.95
77975;BME280;67164;51.202;0.278;2023-05-10T12:37:47;100988.32;;;21.92;43.59
77975;BME280;67164;51.202;0.278;2023-05-10T12:40:12;100986.10;;;21.76;44.57
77975;BME280;67164;51.202;0.278;2023-05-10T12:42:38;100989.36;;;21.86;44.40
77975;BME280;67164;51.202;0.278;2023-05-10T12:45:04;100991.67;;;21.82;44.91
77975;BME280;67164;51.202;0.278;2023-05-10T12:47:29;100996.06;;;21.63;45.39
77975;BME280;67164;51.202;0.278;2023-05-10T12:49:55;100993.83;;;21.39;45.50
77975;BME280;67164;51.202;0.278;2023-05-10T12:52:20;100994.21;;;21.82;45.03